Terminal Aerodrome Forecast
Issued by NWS Charleston, WV

Home | Current Version | Previous Version | Text Only | Print | Product List | Glossary On
Versions: 1 2 3 4 5 6 7 8 9 10 11 12 13 14 15 16 17 18 19 20 21
000
FTUS41 KRLX 081750
TAFPKB
TAF
KPKB 081750Z 0818/0918 20006G12KT 6SM -SHRA BR BKN007 OVC015
     FM082200 23007KT P6SM -SHRA OVC015
     FM090300 25008KT 4SM -SHSN BR OVC008
     FM090500 26009KT 1SM -SHSN BR OVC006
     FM091500 27010KT 2SM -SHSN BR OVC009=

USA.gov is the U.S. government's official web portal to all federal, state and local government web resources and services.